Time;durP1;ratioP1;P1;durP2;ratioP2;P2;SDS_P1;SDS_P2;PMS_P1;PMS_P2;Temp;Humidity;BMP_temperature;BMP_pressure;BME280_temperature;BME280_humidity;BME280_pressure;Samples;Min_cycle;Max_cycle;Signal;HPM_P1;HPM_P2
2021/08/01 00:01:52;;;;;;;;;;;15.90;99.90;;;;;;6307035;28;19986;-66
2021/08/01 00:04:54;;;;;;;;;;;15.80;99.90;;;;;;6319852;28;19985;-66
2021/08/01 00:07:56;;;;;;;;;;;15.80;99.90;;;;;;6346562;28;19976;-67
2021/08/01 00:10:57;;;;;;;;;;;15.80;99.90;;;;;;6312686;28;19995;-67
2021/08/01 00:13:59;;;;;;;;;;;15.80;99.90;;;;;;6342120;28;19979;-66
2021/08/01 00:17:01;;;;;;;;;;;15.80;99.90;;;;;;6346120;28;20470;-67
2021/08/01 00:20:03;;;;;;;;;;;15.80;99.90;;;;;;6335270;28;19986;-67
2021/08/01 00:23:05;;;;;;;;;;;15.80;99.90;;;;;;6342500;28;19976;-67
2021/08/01 00:26:06;;;;;;;;;;;15.70;99.90;;;;;;6329165;28;19955;-66
2021/08/01 00:29:08;;;;;;;;;;;15.70;99.90;;;;;;6342897;28;19982;-66
2021/08/01 00:32:10;;;;;;;;;;;15.60;99.90;;;;;;6342780;28;19995;-67
2021/08/01 00:35:11;;;;;;;;;;;15.70;99.90;;;;;;6344111;28;20421;-67
2021/08/01 00:38:13;;;;;;;;;;;15.60;99.90;;;;;;6345540;28;20342;-66
2021/08/01 00:41:15;;;;;;;;;;;15.60;99.90;;;;;;6314475;28;19976;-66
2021/08/01 00:44:16;;;;;;;;;;;15.60;99.90;;;;;;6339683;28;19990;-66
2021/08/01 00:47:18;;;;;;;;;;;15.60;99.90;;;;;;6319761;28;19979;-66
2021/08/01 00:50:20;;;;;;;;;;;15.50;99.90;;;;;;6345175;28;20290;-67
2021/08/01 00:53:21;;;;;;;;;;;15.50;99.90;;;;;;6324800;28;19972;-66
2021/08/01 00:56:23;;;;;;;;;;;15.50;99.90;;;;;;6328691;28;19983;-66
2021/08/01 00:59:25;;;;;;;;;;;15.40;99.90;;;;;;6326217;28;19982;-67
2021/08/01 01:02:33;;;;;;;;;;;15.40;99.90;;;;;;6339500;28;20391;-67
2021/08/01 01:05:40;;;;;;;;;;;15.40;99.90;;;;;;6342373;28;20345;-66
2021/08/01 01:08:44;;;;;;;;;;;15.40;99.90;;;;;;6313101;28;19980;-66
2021/08/01 01:11:47;;;;;;;;;;;15.40;99.90;;;;;;6344008;28;20431;-67
2021/08/01 01:14:51;;;;;;;;;;;15.40;99.90;;;;;;6340957;28;20403;-66
2021/08/01 01:17:54;;;;;;;;;;;15.30;99.90;;;;;;6315133;28;20378;-67
2021/08/01 01:21:09;;;;;;;;;;;15.30;99.90;;;;;;6310607;28;19976;-67
2021/08/01 01:24:15;;;;;;;;;;;15.30;99.90;;;;;;6317553;28;19981;-66
2021/08/01 01:27:30;;;;;;;;;;;15.30;99.90;;;;;;6319343;28;20025;-66
2021/08/01 01:30:34;;;;;;;;;;;15.20;99.90;;;;;;6312622;28;19996;-66
2021/08/01 01:33:36;;;;;;;;;;;15.20;99.90;;;;;;6315872;28;19976;-66
2021/08/01 01:36:42;;;;;;;;;;;15.20;99.90;;;;;;6319937;28;20289;-67
2021/08/01 01:39:45;;;;;;;;;;;15.20;99.90;;;;;;6317375;28;19977;-67
2021/08/01 01:42:48;;;;;;;;;;;15.20;99.90;;;;;;6317845;28;20018;-67
2021/08/01 01:45:52;;;;;;;;;;;15.20;99.90;;;;;;6320426;28;19988;-67
2021/08/01 01:48:54;;;;;;;;;;;15.10;99.90;;;;;;6318048;28;19984;-66
2021/08/01 01:51:56;;;;;;;;;;;15.10;99.90;;;;;;6317598;28;20386;-67
2021/08/01 01:54:58;;;;;;;;;;;15.10;99.90;;;;;;6318983;28;19972;-66
2021/08/01 01:57:59;;;;;;;;;;;15.10;99.90;;;;;;6318436;28;20414;-66
2021/08/01 02:01:01;;;;;;;;;;;15.10;99.90;;;;;;6311738;28;20308;-67
2021/08/01 02:04:03;;;;;;;;;;;15.10;99.90;;;;;;6317451;28;19980;-66
2021/08/01 02:07:05;;;;;;;;;;;15.10;99.90;;;;;;6318079;28;19975;-66
2021/08/01 02:10:10;;;;;;;;;;;15.10;99.90;;;;;;6316968;28;19980;-67
2021/08/01 02:13:17;;;;;;;;;;;15.00;99.90;;;;;;6311911;28;19996;-66
2021/08/01 02:16:19;;;;;;;;;;;15.00;99.90;;;;;;6317924;28;19977;-67
2021/08/01 02:19:23;;;;;;;;;;;15.00;99.90;;;;;;6335461;28;19972;-66
2021/08/01 02:22:31;;;;;;;;;;;15.10;99.90;;;;;;6305130;28;20362;-66
2021/08/01 02:25:33;;;;;;;;;;;15.10;99.90;;;;;;6319754;28;19980;-66
2021/08/01 02:28:34;;;;;;;;;;;15.10;99.90;;;;;;6342659;28;20408;-66
2021/08/01 02:31:36;;;;;;;;;;;15.10;99.90;;;;;;6312885;28;19995;-66
2021/08/01 02:34:38;;;;;;;;;;;15.10;99.90;;;;;;6324734;28;19972;-66
2021/08/01 02:37:42;;;;;;;;;;;15.10;99.90;;;;;;6342752;28;20426;-66
2021/08/01 02:40:43;;;;;;;;;;;15.10;99.90;;;;;;6336129;28;20431;-66
2021/08/01 02:43:47;;;;;;;;;;;15.10;99.90;;;;;;6315724;28;19979;-66
2021/08/01 02:46:50;;;;;;;;;;;15.20;99.90;;;;;;6344175;28;19976;-66
2021/08/01 02:49:53;;;;;;;;;;;15.20;99.90;;;;;;6341598;28;20412;-66
2021/08/01 02:52:57;;;;;;;;;;;15.20;99.90;;;;;;6320891;28;19987;-67
2021/08/01 02:56:01;;;;;;;;;;;15.20;99.90;;;;;;6343917;28;19976;-66
2021/08/01 02:59:03;;;;;;;;;;;15.30;99.90;;;;;;6342812;28;20422;-66
2021/08/01 03:02:07;;;;;;;;;;;15.30;99.90;;;;;;6340981;28;20345;-66
2021/08/01 03:05:09;;;;;;;;;;;15.40;99.90;;;;;;6342474;28;20039;-67
2021/08/01 03:08:14;;;;;;;;;;;15.40;99.90;;;;;;6342639;28;20431;-67
2021/08/01 03:11:22;;;;;;;;;;;15.50;99.90;;;;;;6337573;28;20364;-67
2021/08/01 03:14:24;;;;;;;;;;;15.50;99.90;;;;;;6338361;28;19980;-66
2021/08/01 03:17:25;;;;;;;;;;;15.50;99.90;;;;;;6342069;28;20002;-66
2021/08/01 03:20:27;;;;;;;;;;;15.50;99.90;;;;;;6331639;28;19980;-66
2021/08/01 03:23:29;;;;;;;;;;;15.60;99.90;;;;;;6320705;28;19980;-67
2021/08/01 03:26:30;;;;;;;;;;;15.60;99.90;;;;;;6340090;28;20036;-66
2021/08/01 03:29:32;;;;;;;;;;;15.60;99.90;;;;;;6337509;28;19979;-66
2021/08/01 03:32:34;;;;;;;;;;;15.60;99.90;;;;;;6345536;28;20388;-66
2021/08/01 03:35:36;;;;;;;;;;;15.60;99.90;;;;;;6348921;28;19986;-66
2021/08/01 03:38:37;;;;;;;;;;;15.60;99.90;;;;;;6323547;28;19979;-66
2021/08/01 03:41:39;;;;;;;;;;;15.60;99.90;;;;;;6346518;28;19976;-66
2021/08/01 03:44:40;;;;;;;;;;;15.60;99.90;;;;;;6345661;28;19983;-66
2021/08/01 03:47:42;;;;;;;;;;;15.60;99.90;;;;;;6346689;28;19979;-66
2021/08/01 03:50:44;;;;;;;;;;;15.50;99.90;;;;;;6346555;28;19979;-66
2021/08/01 03:53:45;;;;;;;;;;;15.60;99.90;;;;;;6340529;28;20458;-66
2021/08/01 03:56:47;;;;;;;;;;;15.60;99.90;;;;;;6348250;28;19972;-67
2021/08/01 03:59:49;;;;;;;;;;;15.60;99.90;;;;;;6345018;28;19984;-67
2021/08/01 04:02:50;;;;;;;;;;;15.60;99.90;;;;;;6340827;28;19972;-66
2021/08/01 04:05:52;;;;;;;;;;;15.50;99.90;;;;;;6347743;28;19975;-66
2021/08/01 04:08:54;;;;;;;;;;;15.60;99.90;;;;;;6341458;28;19979;-67
2021/08/01 04:11:55;;;;;;;;;;;15.50;99.90;;;;;;6308498;28;19973;-67
2021/08/01 04:14:57;;;;;;;;;;;15.50;99.90;;;;;;6342711;28;20324;-67
2021/08/01 04:18:02;;;;;;;;;;;15.50;99.90;;;;;;6342477;28;20475;-67
2021/08/01 04:21:08;;;;;;;;;;;15.50;99.90;;;;;;6342063;28;19972;-67
2021/08/01 04:24:09;;;;;;;;;;;15.50;99.90;;;;;;6318423;28;20470;-67
2021/08/01 04:27:11;;;;;;;;;;;15.50;99.90;;;;;;6345850;28;20369;-66
2021/08/01 04:30:13;;;;;;;;;;;15.50;99.90;;;;;;6345191;28;19944;-66
2021/08/01 04:33:14;;;;;;;;;;;15.50;99.90;;;;;;6341713;28;19992;-66
2021/08/01 04:36:16;;;;;;;;;;;15.50;99.90;;;;;;6347341;28;20078;-67
2021/08/01 04:39:17;;;;;;;;;;;15.50;99.90;;;;;;6345311;28;20245;-66
2021/08/01 04:42:19;;;;;;;;;;;15.50;99.90;;;;;;6338052;28;20376;-67
2021/08/01 04:45:21;;;;;;;;;;;15.50;99.90;;;;;;6347109;28;19980;-66
2021/08/01 04:48:22;;;;;;;;;;;15.50;99.90;;;;;;6313489;28;19978;-67
2021/08/01 04:51:24;;;;;;;;;;;15.50;99.90;;;;;;6344865;28;20331;-67
2021/08/01 04:54:26;;;;;;;;;;;15.50;99.90;;;;;;6314130;28;19987;-66
2021/08/01 04:57:27;;;;;;;;;;;15.60;99.90;;;;;;6345168;28;20015;-67
2021/08/01 05:00:29;;;;;;;;;;;15.60;99.90;;;;;;6344693;28;20016;-67
2021/08/01 05:03:31;;;;;;;;;;;15.60;99.90;;;;;;6342737;28;19979;-67
2021/08/01 05:06:32;;;;;;;;;;;15.70;99.90;;;;;;6346139;28;20361;-66
2021/08/01 05:09:34;;;;;;;;;;;15.70;99.90;;;;;;6336833;28;19976;-67
2021/08/01 05:12:35;;;;;;;;;;;15.70;99.90;;;;;;6311470;28;20065;-67
2021/08/01 05:15:40;;;;;;;;;;;15.80;99.90;;;;;;6344024;28;19979;-66
2021/08/01 05:18:41;;;;;;;;;;;15.70;99.90;;;;;;6336610;28;20022;-67
2021/08/01 05:21:43;;;;;;;;;;;15.70;99.90;;;;;;6316897;28;19982;-66
2021/08/01 05:24:45;;;;;;;;;;;15.70;99.90;;;;;;6342031;28;20338;-66
2021/08/01 05:27:46;;;;;;;;;;;15.70;99.90;;;;;;6344433;28;20004;-66
2021/08/01 05:30:48;;;;;;;;;;;15.70;99.90;;;;;;6344312;28;19980;-66
2021/08/01 05:33:50;;;;;;;;;;;15.70;99.90;;;;;;6339672;28;20393;-67
2021/08/01 05:36:51;;;;;;;;;;;15.70;99.90;;;;;;6308067;28;19936;-66
2021/08/01 05:39:53;;;;;;;;;;;15.70;99.90;;;;;;6343230;28;20400;-67
2021/08/01 05:42:56;;;;;;;;;;;15.60;99.90;;;;;;6338639;28;19980;-67
2021/08/01 05:45:57;;;;;;;;;;;15.60;99.90;;;;;;6320359;28;19980;-67
2021/08/01 05:48:59;;;;;;;;;;;15.60;99.90;;;;;;6342473;28;20028;-66
2021/08/01 05:52:01;;;;;;;;;;;15.60;99.90;;;;;;6311425;28;19995;-66
2021/08/01 05:55:03;;;;;;;;;;;15.60;99.90;;;;;;6323602;28;19971;-67
2021/08/01 05:58:04;;;;;;;;;;;15.70;99.90;;;;;;6344282;28;19976;-67
2021/08/01 06:01:10;;;;;;;;;;;15.70;99.90;;;;;;6306973;28;20354;-67
2021/08/01 06:04:13;;;;;;;;;;;15.70;99.90;;;;;;6339697;28;19990;-66
2021/08/01 06:07:15;;;;;;;;;;;15.70;99.90;;;;;;6344004;28;19986;-67
2021/08/01 06:10:16;;;;;;;;;;;15.60;99.90;;;;;;6311568;28;19975;-66
2021/08/01 06:13:18;;;;;;;;;;;15.60;99.90;;;;;;6339906;28;19996;-66
2021/08/01 06:16:20;;;;;;;;;;;15.50;99.90;;;;;;6316781;28;19979;-66
2021/08/01 06:19:28;;;;;;;;;;;15.50;99.90;;;;;;6333152;28;20455;-66
2021/08/01 06:22:30;;;;;;;;;;;15.50;99.90;;;;;;6335214;28;19983;-67
2021/08/01 06:25:35;;;;;;;;;;;15.40;99.90;;;;;;6345049;28;19988;-66
2021/08/01 06:28:36;;;;;;;;;;;15.50;99.90;;;;;;6315152;28;19984;-66
2021/08/01 06:31:38;;;;;;;;;;;15.40;99.90;;;;;;6342754;28;20064;-66
2021/08/01 06:34:39;;;;;;;;;;;15.40;99.90;;;;;;6314489;28;19975;-66
2021/08/01 06:37:41;;;;;;;;;;;15.40;99.90;;;;;;6343250;28;20425;-66
2021/08/01 06:40:43;;;;;;;;;;;15.40;99.90;;;;;;6342976;28;19983;-66
2021/08/01 06:43:45;;;;;;;;;;;15.40;99.90;;;;;;6318856;28;20077;-66
2021/08/01 06:46:46;;;;;;;;;;;15.50;99.90;;;;;;6344735;28;20033;-66
2021/08/01 06:49:48;;;;;;;;;;;15.50;99.90;;;;;;6340323;28;19987;-66
2021/08/01 06:53:07;;;;;;;;;;;15.60;99.90;;;;;;6321390;28;20053;-66
2021/08/01 06:56:09;;;;;;;;;;;15.70;99.90;;;;;;6315327;28;19991;-66
2021/08/01 06:59:11;;;;;;;;;;;15.80;99.90;;;;;;6324133;28;20342;-66
2021/08/01 07:02:16;;;;;;;;;;;15.80;99.90;;;;;;6345188;28;20805;-66
2021/08/01 07:05:17;;;;;;;;;;;15.90;99.90;;;;;;6346165;28;20105;-66
2021/08/01 07:08:19;;;;;;;;;;;16.00;99.90;;;;;;6325448;28;19976;-67
2021/08/01 07:11:21;;;;;;;;;;;16.00;99.90;;;;;;6316592;28;19983;-66
2021/08/01 07:14:22;;;;;;;;;;;16.00;99.90;;;;;;6342442;28;20747;-66
2021/08/01 07:17:24;;;;;;;;;;;16.10;99.90;;;;;;6347074;28;20000;-66
2021/08/01 07:20:26;;;;;;;;;;;16.10;99.90;;;;;;6339074;28;19982;-66
2021/08/01 07:23:28;;;;;;;;;;;16.20;99.90;;;;;;6345064;28;20053;-66
2021/08/01 07:26:29;;;;;;;;;;;16.20;99.90;;;;;;6349258;28;19972;-66
2021/08/01 07:29:31;;;;;;;;;;;16.30;99.90;;;;;;6338441;28;20441;-69
2021/08/01 07:32:33;;;;;;;;;;;16.30;99.90;;;;;;6341104;28;20447;-69
2021/08/01 07:35:35;;;;;;;;;;;16.30;99.90;;;;;;6349059;28;19975;-69
2021/08/01 07:38:37;;;;;;;;;;;16.40;99.90;;;;;;6347385;28;20019;-69
2021/08/01 07:41:39;;;;;;;;;;;16.40;99.90;;;;;;6346445;28;19972;-69
2021/08/01 07:44:48;;;;;;;;;;;16.40;99.90;;;;;;6344560;28;19975;-69
2021/08/01 07:47:50;;;;;;;;;;;16.40;99.90;;;;;;6321726;28;20442;-69
2021/08/01 07:50:52;;;;;;;;;;;16.50;99.90;;;;;;6315618;28;19999;-69
2021/08/01 07:53:53;;;;;;;;;;;16.50;99.90;;;;;;6344817;28;20376;-69
2021/08/01 07:56:55;;;;;;;;;;;16.50;99.90;;;;;;6316337;28;20411;-69
2021/08/01 07:59:58;;;;;;;;;;;16.60;99.90;;;;;;6345574;28;19976;-69
2021/08/01 08:02:59;;;;;;;;;;;16.60;99.90;;;;;;6337683;28;20311;-68
2021/08/01 08:06:05;;;;;;;;;;;16.60;99.90;;;;;;6347630;28;19982;-68
2021/08/01 08:09:07;;;;;;;;;;;16.70;99.90;;;;;;6344761;28;19980;-69
2021/08/01 08:12:09;;;;;;;;;;;16.80;99.90;;;;;;6317909;28;19987;-69
2021/08/01 08:15:12;;;;;;;;;;;16.80;99.90;;;;;;6323261;28;19987;-69
2021/08/01 08:18:14;;;;;;;;;;;16.90;99.90;;;;;;6314758;28;19996;-69
2021/08/01 08:21:16;;;;;;;;;;;16.90;99.90;;;;;;6322866;28;19995;-68
2021/08/01 08:24:17;;;;;;;;;;;17.00;99.90;;;;;;6320896;28;19979;-69
2021/08/01 08:27:19;;;;;;;;;;;17.00;99.90;;;;;;6346446;28;19976;-68
2021/08/01 08:38:28;;;;;;;;;;;17.30;99.90;;;;;;6341991;28;19964;-69
2021/08/01 08:41:30;;;;;;;;;;;17.50;99.90;;;;;;6345677;28;19972;-69
2021/08/01 08:44:33;;;;;;;;;;;17.60;99.90;;;;;;6319820;28;19976;-69
2021/08/01 08:47:37;;;;;;;;;;;17.60;99.90;;;;;;6345664;28;19964;-69
2021/08/01 08:50:40;;;;;;;;;;;17.60;99.90;;;;;;6320535;28;20492;-69
2021/08/01 08:53:48;;;;;;;;;;;17.70;99.90;;;;;;6341028;28;19984;-69
2021/08/01 08:56:51;;;;;;;;;;;17.70;99.90;;;;;;6346541;28;19973;-68
2021/08/01 08:59:57;;;;;;;;;;;17.70;99.90;;;;;;6314948;28;20407;-69
2021/08/01 09:02:59;;;;;;;;;;;17.80;99.90;;;;;;6341286;28;19976;-68
2021/08/01 09:06:01;;;;;;;;;;;17.90;99.90;;;;;;6309193;28;19976;-68
2021/08/01 09:09:03;;;;;;;;;;;17.90;99.90;;;;;;6317843;28;19975;-69
2021/08/01 09:12:04;;;;;;;;;;;18.00;99.90;;;;;;6343853;28;19972;-68
2021/08/01 09:15:13;;;;;;;;;;;18.00;99.90;;;;;;6346504;28;19976;-69
2021/08/01 09:18:18;;;;;;;;;;;17.90;99.90;;;;;;6339358;28;20006;-69
2021/08/01 09:21:32;;;;;;;;;;;17.90;99.90;;;;;;6333834;28;20441;-68
2021/08/01 09:24:37;;;;;;;;;;;17.80;99.90;;;;;;6324897;28;20180;-69
2021/08/01 09:27:40;;;;;;;;;;;17.70;99.90;;;;;;6326130;28;20311;-70
2021/08/01 09:34:46;;;;;;;;;;;17.70;99.90;;;;;;6341073;28;19976;-69
2021/08/01 09:37:55;;;;;;;;;;;17.80;99.90;;;;;;6318936;28;19976;-69
2021/08/01 09:41:02;;;;;;;;;;;17.80;99.90;;;;;;6325356;28;19999;-69
2021/08/01 09:44:05;;;;;;;;;;;17.90;99.90;;;;;;6341189;28;20110;-68
2021/08/01 09:47:07;;;;;;;;;;;17.90;99.90;;;;;;6343732;28;19976;-69
2021/08/01 09:50:09;;;;;;;;;;;18.00;99.90;;;;;;6343876;28;19982;-69
2021/08/01 09:53:11;;;;;;;;;;;18.00;99.90;;;;;;6343105;28;19994;-69
2021/08/01 09:56:15;;;;;;;;;;;18.10;99.90;;;;;;6345575;28;19987;-69
2021/08/01 09:59:18;;;;;;;;;;;18.20;99.90;;;;;;6322657;28;20470;-69
2021/08/01 10:02:34;;;;;;;;;;;18.30;99.90;;;;;;6340658;28;20028;-68
2021/08/01 10:05:38;;;;;;;;;;;18.30;99.90;;;;;;6325627;28;19987;-66
2021/08/01 10:08:41;;;;;;;;;;;18.30;99.90;;;;;;6343140;28;19972;-66
2021/08/01 10:11:51;;;;;;;;;;;18.30;99.90;;;;;;6340876;28;19983;-66
2021/08/01 10:14:53;;;;;;;;;;;18.40;99.90;;;;;;6338209;28;19996;-69
2021/08/01 10:17:54;;;;;;;;;;;18.50;99.90;;;;;;6310040;28;20002;-69
2021/08/01 10:20:56;;;;;;;;;;;18.60;99.90;;;;;;6338607;28;19984;-69
2021/08/01 10:23:59;;;;;;;;;;;18.70;99.90;;;;;;6324499;28;19984;-69
2021/08/01 10:27:05;;;;;;;;;;;18.70;99.90;;;;;;6305043;28;19977;-68
2021/08/01 10:30:07;;;;;;;;;;;18.70;99.90;;;;;;6342577;28;19976;-69
2021/08/01 10:33:10;;;;;;;;;;;18.80;99.90;;;;;;6342544;28;20018;-70
2021/08/01 10:36:13;;;;;;;;;;;18.90;99.90;;;;;;6305605;28;20411;-69
2021/08/01 10:39:18;;;;;;;;;;;18.90;99.90;;;;;;6341362;28;20431;-69
2021/08/01 10:42:22;;;;;;;;;;;18.80;99.90;;;;;;6338035;28;20339;-69
2021/08/01 10:45:24;;;;;;;;;;;18.80;99.90;;;;;;6344393;28;20377;-66
2021/08/01 10:48:27;;;;;;;;;;;18.80;99.90;;;;;;6339589;28;20095;-66
2021/08/01 10:51:30;;;;;;;;;;;18.80;99.90;;;;;;6342744;28;19976;-66
2021/08/01 10:54:32;;;;;;;;;;;18.80;99.90;;;;;;6315172;28;19992;-67
2021/08/01 10:57:33;;;;;;;;;;;18.80;99.90;;;;;;6307312;28;19972;-66
2021/08/01 11:00:54;;;;;;;;;;;18.80;99.90;;;;;;6333180;28;19972;-66
2021/08/01 11:04:14;;;;;;;;;;;18.90;99.90;;;;;;6338278;28;20461;-67
2021/08/01 11:07:28;;;;;;;;;;;18.80;99.90;;;;;;6338506;28;19983;-66
2021/08/01 11:10:29;;;;;;;;;;;18.80;99.90;;;;;;6342456;28;20319;-67
2021/08/01 11:13:31;;;;;;;;;;;18.80;99.90;;;;;;6324253;28;19996;-67
2021/08/01 11:16:33;;;;;;;;;;;18.80;99.90;;;;;;6343645;28;19980;-67
2021/08/01 11:19:34;;;;;;;;;;;18.80;99.90;;;;;;6330986;28;20025;-66
2021/08/01 11:22:48;;;;;;;;;;;18.80;99.90;;;;;;6337670;28;19972;-67
2021/08/01 11:26:06;;;;;;;;;;;18.80;99.90;;;;;;6337119;28;19976;-66
2021/08/01 11:29:09;;;;;;;;;;;18.80;99.90;;;;;;6341952;28;20033;-66
2021/08/01 11:32:10;;;;;;;;;;;18.90;99.90;;;;;;6340542;28;19980;-66
2021/08/01 11:35:16;;;;;;;;;;;18.90;99.90;;;;;;6314905;28;20002;-67
2021/08/01 11:38:18;;;;;;;;;;;18.80;99.90;;;;;;6329801;28;20427;-67
2021/08/01 11:41:25;;;;;;;;;;;18.80;99.90;;;;;;6343510;28;20093;-67
2021/08/01 11:44:50;;;;;;;;;;;18.80;99.90;;;;;;6346982;28;19976;-67
2021/08/01 11:47:52;;;;;;;;;;;18.70;99.90;;;;;;6340519;28;19973;-67
2021/08/01 11:50:56;;;;;;;;;;;18.60;99.90;;;;;;6346809;28;20117;-67
2021/08/01 11:53:58;;;;;;;;;;;18.60;99.90;;;;;;6346669;28;19992;-66
2021/08/01 11:57:01;;;;;;;;;;;18.60;99.90;;;;;;6328187;28;19983;-67
2021/08/01 12:00:03;;;;;;;;;;;18.50;99.90;;;;;;6341508;28;20377;-67
2021/08/01 12:03:06;;;;;;;;;;;18.50;99.90;;;;;;6339476;28;19976;-67
2021/08/01 12:06:07;;;;;;;;;;;18.40;99.90;;;;;;6345605;28;19983;-67
2021/08/01 12:09:17;;;;;;;;;;;18.30;99.90;;;;;;6342225;28;19990;-67
2021/08/01 12:12:25;;;;;;;;;;;18.30;99.90;;;;;;6339711;28;20436;-67
2021/08/01 12:15:35;;;;;;;;;;;18.30;99.90;;;;;;6347584;28;20041;-67
2021/08/01 12:18:37;;;;;;;;;;;18.30;99.90;;;;;;6339198;28;20077;-67
2021/08/01 12:21:39;;;;;;;;;;;18.30;99.90;;;;;;6314848;28;20474;-67
2021/08/01 12:24:45;;;;;;;;;;;18.30;99.90;;;;;;6346414;28;19971;-67
2021/08/01 12:27:47;;;;;;;;;;;18.30;99.90;;;;;;6343039;28;19979;-67
2021/08/01 12:30:49;;;;;;;;;;;18.40;99.90;;;;;;6345123;28;20016;-67
2021/08/01 12:33:50;;;;;;;;;;;18.40;99.90;;;;;;6345743;28;20446;-67
2021/08/01 12:36:52;;;;;;;;;;;18.50;99.90;;;;;;6346845;28;19972;-67
2021/08/01 12:39:54;;;;;;;;;;;18.70;99.90;;;;;;6342547;28;19972;-67
2021/08/01 12:42:57;;;;;;;;;;;18.80;99.90;;;;;;6320274;28;20457;-67
2021/08/01 12:45:59;;;;;;;;;;;18.90;99.90;;;;;;6315577;28;19987;-67
2021/08/01 12:49:01;;;;;;;;;;;18.90;99.90;;;;;;6315851;28;19999;-67
2021/08/01 12:52:03;;;;;;;;;;;18.90;99.90;;;;;;6339831;28;20350;-67
2021/08/01 12:55:05;;;;;;;;;;;19.00;99.90;;;;;;6309057;28;19995;-67
2021/08/01 12:58:11;;;;;;;;;;;19.00;99.90;;;;;;6344885;28;19976;-67
2021/08/01 13:01:13;;;;;;;;;;;18.90;99.90;;;;;;6319727;28;20411;-67
2021/08/01 13:04:15;;;;;;;;;;;18.90;99.90;;;;;;6345164;28;20062;-67
2021/08/01 13:11:23;;;;;;;;;;;18.70;99.90;;;;;;6341729;28;20066;-67
2021/08/01 13:14:32;;;;;;;;;;;18.70;99.90;;;;;;6338095;28;19999;-66
2021/08/01 13:17:41;;;;;;;;;;;18.60;99.90;;;;;;6340909;28;19992;-67
2021/08/01 13:20:42;;;;;;;;;;;18.60;99.90;;;;;;6333478;28;19976;-67
2021/08/01 13:23:53;;;;;;;;;;;18.60;99.90;;;;;;6342585;28;20435;-67
2021/08/01 13:26:58;;;;;;;;;;;18.60;99.90;;;;;;6337977;28;20393;-67
2021/08/01 13:30:13;;;;;;;;;;;18.60;99.90;;;;;;6343993;28;19980;-67
2021/08/01 13:33:15;;;;;;;;;;;18.60;99.90;;;;;;6335249;28;20098;-67
2021/08/01 13:36:16;;;;;;;;;;;18.70;99.90;;;;;;6345643;28;19986;-67
2021/08/01 13:39:25;;;;;;;;;;;18.80;99.90;;;;;;6317266;28;19979;-67
2021/08/01 13:42:40;;;;;;;;;;;18.90;99.90;;;;;;6341054;28;19979;-67
2021/08/01 13:45:43;;;;;;;;;;;19.00;99.90;;;;;;6339885;28;20480;-67
2021/08/01 13:48:48;;;;;;;;;;;19.10;99.90;;;;;;6343621;28;19976;-67
2021/08/01 13:51:49;;;;;;;;;;;19.10;99.90;;;;;;6343424;28;19980;-67
2021/08/01 13:54:51;;;;;;;;;;;19.10;99.90;;;;;;6315267;28;19991;-67
2021/08/01 13:58:03;;;;;;;;;;;19.10;99.90;;;;;;6343656;28;20350;-67
2021/08/01 14:01:04;;;;;;;;;;;19.10;99.90;;;;;;6323960;28;21159;-66
2021/08/01 14:04:10;;;;;;;;;;;19.10;99.90;;;;;;6339914;28;19986;-67
2021/08/01 14:07:12;;;;;;;;;;;19.10;99.90;;;;;;6311851;28;19987;-67
2021/08/01 14:10:13;;;;;;;;;;;19.20;99.90;;;;;;6343389;28;19980;-66
2021/08/01 14:13:15;;;;;;;;;;;19.30;99.90;;;;;;6322119;28;20346;-66
2021/08/01 14:16:17;;;;;;;;;;;19.30;99.90;;;;;;6345404;28;19940;-67
2021/08/01 14:19:18;;;;;;;;;;;19.50;99.90;;;;;;6333125;28;20371;-66
2021/08/01 14:22:20;;;;;;;;;;;19.50;99.90;;;;;;6336128;28;20054;-67
2021/08/01 14:25:22;;;;;;;;;;;19.60;99.90;;;;;;6327021;28;19979;-66
2021/08/01 14:28:24;;;;;;;;;;;19.60;99.90;;;;;;6343563;28;19979;-67
2021/08/01 14:31:26;;;;;;;;;;;19.60;99.90;;;;;;6315789;28;20024;-67
2021/08/01 14:34:29;;;;;;;;;;;19.60;99.90;;;;;;6342336;28;19995;-67
2021/08/01 14:37:30;;;;;;;;;;;19.50;99.90;;;;;;6339975;28;19972;-66
2021/08/01 14:40:32;;;;;;;;;;;19.50;99.90;;;;;;6342170;28;19982;-67
2021/08/01 14:43:34;;;;;;;;;;;19.50;99.90;;;;;;6314891;28;20079;-66
2021/08/01 14:46:36;;;;;;;;;;;19.60;99.90;;;;;;6307136;28;19971;-66
2021/08/01 14:49:46;;;;;;;;;;;19.70;99.90;;;;;;6339735;28;19976;-66
2021/08/01 14:53:04;;;;;;;;;;;19.80;99.90;;;;;;6332690;28;19983;-66
2021/08/01 14:56:06;;;;;;;;;;;19.90;99.90;;;;;;6312586;28;19996;-66
2021/08/01 14:59:08;;;;;;;;;;;19.90;99.90;;;;;;6343379;28;19983;-67
2021/08/01 15:02:22;;;;;;;;;;;19.90;99.90;;;;;;6340611;28;20362;-69
2021/08/01 15:05:37;;;;;;;;;;;20.00;99.90;;;;;;6341770;28;19979;-69
2021/08/01 15:08:49;;;;;;;;;;;20.00;99.90;;;;;;6342936;28;20095;-69
2021/08/01 15:12:11;;;;;;;;;;;20.00;99.90;;;;;;6342885;28;20079;-69
2021/08/01 15:15:18;;;;;;;;;;;20.00;99.90;;;;;;6319575;28;20000;-67
2021/08/01 15:18:23;;;;;;;;;;;19.90;99.90;;;;;;6335105;28;19997;-66
2021/08/01 15:21:25;;;;;;;;;;;19.90;99.90;;;;;;6318738;28;19980;-66
2021/08/01 15:24:47;;;;;;;;;;;20.00;99.90;;;;;;6320615;28;19972;-66
2021/08/01 15:27:50;;;;;;;;;;;20.10;99.90;;;;;;6320556;28;19976;-66
2021/08/01 15:30:51;;;;;;;;;;;20.10;99.90;;;;;;6316685;28;19984;-66
2021/08/01 15:33:56;;;;;;;;;;;20.00;99.90;;;;;;6316791;28;19988;-69
2021/08/01 15:36:58;;;;;;;;;;;19.90;99.90;;;;;;6304088;28;20420;-69
2021/08/01 15:40:05;;;;;;;;;;;19.90;99.90;;;;;;6317325;28;19986;-69
2021/08/01 15:43:07;;;;;;;;;;;19.90;99.90;;;;;;6300056;28;20020;-69
2021/08/01 15:46:09;;;;;;;;;;;20.00;99.90;;;;;;6301572;28;19976;-69
2021/08/01 15:49:11;;;;;;;;;;;20.00;99.90;;;;;;6317814;28;19981;-69
2021/08/01 15:52:19;;;;;;;;;;;20.10;99.90;;;;;;6317942;28;19987;-69
2021/08/01 15:55:21;;;;;;;;;;;20.20;99.90;;;;;;6318262;28;20460;-69
2021/08/01 15:58:26;;;;;;;;;;;20.40;99.90;;;;;;6317939;28;19980;-69
2021/08/01 16:01:31;;;;;;;;;;;20.50;99.90;;;;;;6299444;28;19980;-69
2021/08/01 16:04:45;;;;;;;;;;;20.50;99.90;;;;;;6318866;28;19976;-69
2021/08/01 16:07:48;;;;;;;;;;;20.50;99.90;;;;;;6317768;28;20324;-69
2021/08/01 16:10:51;;;;;;;;;;;20.50;99.90;;;;;;6318015;28;20284;-69
2021/08/01 16:13:53;;;;;;;;;;;20.50;99.90;;;;;;6317438;28;19988;-69
2021/08/01 16:17:21;;;;;;;;;;;20.40;99.90;;;;;;6318122;28;20086;-69
2021/08/01 16:20:23;;;;;;;;;;;20.20;99.90;;;;;;6261719;28;19987;-69
2021/08/01 16:23:25;;;;;;;;;;;20.10;99.90;;;;;;6317700;28;20385;-69
2021/08/01 16:26:28;;;;;;;;;;;20.20;99.90;;;;;;6317677;28;19991;-69
2021/08/01 16:29:30;;;;;;;;;;;20.20;99.90;;;;;;6314644;28;19983;-69
2021/08/01 16:32:35;;;;;;;;;;;20.10;99.90;;;;;;6315915;28;19976;-69
2021/08/01 16:35:37;;;;;;;;;;;20.00;99.90;;;;;;6317145;28;19989;-69
2021/08/01 16:38:39;;;;;;;;;;;19.80;99.90;;;;;;6317928;28;20141;-69
2021/08/01 16:41:52;;;;;;;;;;;19.70;99.90;;;;;;6316525;28;19976;-69
2021/08/01 16:45:09;;;;;;;;;;;19.60;99.90;;;;;;6316827;28;20447;-69
2021/08/01 16:48:13;;;;;;;;;;;19.50;99.90;;;;;;6317594;28;19976;-69
2021/08/01 16:51:18;;;;;;;;;;;19.50;99.90;;;;;;6316388;28;19983;-69
2021/08/01 16:54:24;;;;;;;;;;;19.40;99.90;;;;;;6317633;28;19992;-69
2021/08/01 16:57:29;;;;;;;;;;;19.50;99.90;;;;;;6298755;28;20419;-69
2021/08/01 17:00:35;;;;;;;;;;;19.50;99.90;;;;;;6315725;28;20068;-69
2021/08/01 17:03:47;;;;;;;;;;;19.60;99.90;;;;;;6300075;28;19972;-69
2021/08/01 17:06:52;;;;;;;;;;;19.60;99.90;;;;;;6317787;28;20567;-69
2021/08/01 17:09:53;;;;;;;;;;;19.50;99.90;;;;;;6315814;28;19976;-69
2021/08/01 17:12:56;;;;;;;;;;;19.40;99.90;;;;;;6316985;28;20411;-69
2021/08/01 17:16:00;;;;;;;;;;;19.30;99.90;;;;;;6316505;28;20355;-69
2021/08/01 17:19:06;;;;;;;;;;;19.20;99.90;;;;;;6319148;28;20145;-70
2021/08/01 17:22:09;;;;;;;;;;;19.20;99.90;;;;;;6316049;28;20435;-69
2021/08/01 17:25:11;;;;;;;;;;;19.10;99.90;;;;;;6316312;28;19976;-69
2021/08/01 17:28:13;;;;;;;;;;;19.10;99.90;;;;;;6298767;28;20363;-69
2021/08/01 17:31:19;;;;;;;;;;;19.10;99.90;;;;;;6314147;28;19976;-69
2021/08/01 17:34:24;;;;;;;;;;;19.10;99.90;;;;;;6315316;28;19992;-69
2021/08/01 17:37:28;;;;;;;;;;;19.00;99.90;;;;;;6317291;28;19981;-69
2021/08/01 17:40:30;;;;;;;;;;;19.00;99.90;;;;;;6317292;28;20042;-69
2021/08/01 17:43:34;;;;;;;;;;;18.90;99.90;;;;;;6297576;28;19976;-69
2021/08/01 17:46:36;;;;;;;;;;;18.90;99.90;;;;;;6315254;28;19952;-69
2021/08/01 17:49:38;;;;;;;;;;;18.90;99.90;;;;;;6314989;28;19972;-69
2021/08/01 17:52:48;;;;;;;;;;;19.00;99.90;;;;;;6314628;28;19984;-69
2021/08/01 17:55:49;;;;;;;;;;;19.10;99.90;;;;;;6316011;28;19991;-69
2021/08/01 17:58:52;;;;;;;;;;;19.20;99.90;;;;;;6298974;28;20392;-69
2021/08/01 18:01:54;;;;;;;;;;;19.30;99.90;;;;;;6314374;28;20030;-69
2021/08/01 18:04:55;;;;;;;;;;;19.30;99.90;;;;;;6313870;28;19980;-69